Time;durP1;ratioP1;P1;durP2;ratioP2;P2;SDS_P1;SDS_P2;PMS_P1;PMS_P2;Temp;Humidity;BMP_temperature;BMP_pressure;BME280_temperature;BME280_humidity;BME280_pressure;Samples;Min_cycle;Max_cycle;Signal;HPM_P1;HPM_P2
2023/03/21 00:03:57;;;;;;;155.73;17.08;;;;;;;9.18;95.51;100071.81;10419095;28;20037;-77
2023/03/21 00:08:58;;;;;;;124.00;15.40;;;;;;;9.40;95.52;100112.75;10418147;28;20168;-77
2023/03/21 00:14:01;;;;;;;165.07;17.65;;;;;;;8.35;94.92;99947.44;10419218;28;20064;-77
2023/03/21 00:19:05;;;;;;;143.88;15.65;;;;;;;9.54;94.93;100130.66;10419530;28;20045;-77
2023/03/21 00:24:06;;;;;;;148.23;16.45;;;;;;;9.48;94.30;100131.31;10417683;28;20516;-76
2023/03/21 00:29:07;;;;;;;134.85;17.80;;;;;;;9.44;94.41;100129.97;10418234;28;20042;-76
2023/03/21 00:34:08;;;;;;;142.95;15.10;;;;;;;9.46;94.98;100122.69;10417836;28;20052;-77
2023/03/21 00:39:09;;;;;;;127.97;15.25;;;;;;;9.17;94.51;100085.25;10419267;28;20069;-77
2023/03/21 00:44:14;;;;;;;137.75;15.48;;;;;;;9.22;95.04;100097.00;10418364;28;20048;-77
2023/03/21 00:49:15;;;;;;;140.38;17.55;;;;;;;9.27;95.34;100125.66;10417255;28;20060;-77
2023/03/21 00:54:16;;;;;;;149.00;17.65;;;;;;;9.08;96.11;100108.25;10417575;28;20041;-77
2023/03/21 00:59:18;;;;;;;139.73;15.57;;;;;;;9.24;96.10;100148.00;10417045;28;20143;-77
2023/03/21 01:04:19;;;;;;;125.03;14.02;;;;;;;9.19;96.69;100147.69;10415861;28;20037;-77
2023/03/21 01:09:23;;;;;;;140.95;15.60;;;;;;;9.16;97.49;100149.84;10416562;28;20050;-77
2023/03/21 01:14:24;;;;;;;149.05;16.10;;;;;;;8.87;97.26;100111.38;10417060;28;20069;-77
2023/03/21 01:19:27;;;;;;;127.35;16.00;;;;;;;8.00;97.28;99966.03;10416125;28;20408;-77
2023/03/21 01:24:27;;;;;;;131.07;15.50;;;;;;;8.57;97.08;100060.66;10416261;28;20043;-78
2023/03/21 01:29:28;;;;;;;125.75;16.10;;;;;;;8.77;97.13;100098.28;10457696;28;20045;-77
2023/03/21 01:34:29;;;;;;;136.35;14.98;;;;;;;9.17;97.36;100170.88;10456858;28;20482;-77
2023/03/21 01:39:33;;;;;;;134.60;15.60;;;;;;;8.88;97.36;100132.41;10427534;28;20041;-77
2023/03/21 01:44:51;;;;;;;;;;;;;;;9.27;98.38;100178.66;10415949;28;20049;-77
2023/03/21 01:49:55;;;;;;;156.02;34.72;;;;;;;8.65;97.29;100100.41;10415214;28;19940;-78
2023/03/21 01:54:59;;;;;;;177.18;43.47;;;;;;;9.14;97.51;100176.50;10414019;28;20071;-78
2023/03/21 02:00:11;;;;;;;164.25;34.45;;;;;;;8.71;97.21;100111.34;10415480;28;20504;-78
2023/03/21 02:05:12;;;;;;;142.15;17.27;;;;;;;8.86;96.83;100141.50;10414357;28;20037;-78
2023/03/21 02:10:15;;;;;;;113.22;21.20;;;;;;;8.98;96.94;100164.06;10424733;28;20063;-77
2023/03/21 02:15:16;;;;;;;155.50;24.53;;;;;;;8.63;96.66;100106.84;10435267;28;20405;-77
2023/03/21 02:20:35;;;;;;;136.18;23.67;;;;;;;9.03;97.50;100179.44;10453886;28;20046;-77
2023/03/21 02:25:42;;;;;;;138.27;19.95;;;;;;;8.96;97.10;100181.09;10455432;28;20445;-78
2023/03/21 02:31:09;;;;;;;125.35;14.43;;;;;;;8.98;96.82;100187.91;10420575;28;20518;-78
2023/03/21 02:36:25;;;;;;;114.30;15.43;;;;;;;8.49;96.15;100118.03;10413098;28;20132;-77
2023/03/21 02:41:38;;;;;;;127.28;15.63;;;;;;;8.96;96.75;100197.00;10413785;28;20434;-77
2023/03/21 02:46:44;;;;;;;137.73;17.38;;;;;;;8.90;96.32;100198.47;10422180;28;20382;-78
2023/03/21 02:51:47;;;;;;;128.38;17.23;;;;;;;8.82;96.10;100193.97;10441586;28;20036;-82
2023/03/21 02:56:50;;;;;;;136.75;17.15;;;;;;;8.76;95.88;100180.53;10418478;28;20080;-77
2023/03/21 03:01:53;;;;;;;141.23;15.27;;;;;;;8.80;95.70;100188.00;10450966;28;20056;-77
2023/03/21 03:06:56;;;;;;;136.40;16.33;;;;;;;8.46;95.52;100135.06;10446686;28;20041;-78
2023/03/21 03:12:24;;;;;;;123.85;16.58;;;;;;;9.01;95.98;100214.06;10446083;28;20041;-79
2023/03/21 03:17:48;;;;;;;151.88;15.68;;;;;;;9.01;95.83;100211.44;10413608;28;20058;-77
2023/03/21 03:23:04;;;;;;;104.03;13.60;;;;;;;9.05;94.71;100226.00;10371670;28;20042;-75
2023/03/21 03:28:06;;;;;;;113.25;14.20;;;;;;;8.95;94.70;100209.41;10345749;28;20051;-76
2023/03/21 03:33:09;;;;;;;94.07;12.48;;;;;;;8.79;94.76;100185.50;10299342;28;20050;-75
2023/03/21 03:38:13;;;;;;;93.43;12.98;;;;;;;9.08;94.40;100228.31;10298388;28;20042;-77
2023/03/21 03:43:32;;;;;;;104.60;13.43;;;;;;;8.76;94.82;100156.69;10298856;28;20039;-76
2023/03/21 03:48:52;;;;;;;102.00;12.63;;;;;;;9.08;95.03;100198.34;10298642;28;20510;-76
2023/03/21 03:54:17;;;;;;;88.97;11.68;;;;;;;9.29;94.37;100222.59;10298148;28;20119;-77
2023/03/21 03:59:20;;;;;;;97.68;12.95;;;;;;;9.29;93.70;100206.69;10311199;28;20097;-79
2023/03/21 04:04:21;;;;;;;114.25;12.65;;;;;;;9.08;93.34;100177.97;10298458;28;20545;-78
2023/03/21 04:09:22;;;;;;;108.22;15.00;;;;;;;9.22;93.45;100207.50;10297226;28;20054;-79
2023/03/21 04:14:24;;;;;;;132.23;24.90;;;;;;;9.17;93.15;100185.94;10297951;28;20066;-78
2023/03/21 04:19:25;;;;;;;112.00;17.40;;;;;;;9.12;92.84;100170.53;10296676;28;20130;-81
2023/03/21 04:24:26;;;;;;;117.72;27.15;;;;;;;9.53;92.85;100218.31;10297659;28;20490;-77
2023/03/21 04:29:28;;;;;;;129.05;29.13;;;;;;;9.60;92.40;100208.69;10296917;28;20050;-79
2023/03/21 04:34:29;;;;;;;115.25;26.52;;;;;;;9.48;91.95;100163.13;10300257;28;20058;-80
2023/03/21 04:39:30;;;;;;;110.72;21.15;;;;;;;9.61;90.87;100186.50;10325539;28;20847;-81
2023/03/21 04:44:31;;;;;;;90.90;14.90;;;;;;;9.75;90.10;100207.06;10314509;28;20039;-80
2023/03/21 04:49:32;;;;;;;84.80;15.27;;;;;;;9.94;90.01;100243.03;10337472;28;20042;-80
2023/03/21 04:54:32;;;;;;;112.03;14.55;;;;;;;9.67;89.75;100182.38;10322891;28;20126;-80
2023/03/21 04:59:34;;;;;;;93.90;13.10;;;;;;;9.93;89.14;100236.09;10295470;28;20053;-77
2023/03/21 05:04:35;;;;;;;99.80;13.88;;;;;;;9.90;89.21;100272.72;10310129;28;20038;-81
2023/03/21 05:09:36;;;;;;;93.65;14.20;;;;;;;8.79;89.05;100137.84;10336837;28;20042;-80
2023/03/21 05:14:36;;;;;;;78.40;10.80;;;;;;;9.28;89.77;100228.06;10313861;28;20538;-79
2023/03/21 05:19:39;;;;;;;74.43;11.43;;;;;;;9.62;90.10;100290.75;10317685;28;20073;-79
2023/03/21 05:24:40;;;;;;;84.93;11.48;;;;;;;9.65;90.37;100277.16;10320451;28;20042;-79
2023/03/21 05:29:41;;;;;;;82.60;11.18;;;;;;;9.45;90.73;100248.28;10295082;28;20529;-79
2023/03/21 05:34:42;;;;;;;90.22;11.27;;;;;;;9.89;90.73;100298.41;10315887;28;20134;-79
2023/03/21 05:39:42;;;;;;;97.72;11.68;;;;;;;9.98;90.46;100292.13;10334654;28;20050;-79
2023/03/21 05:44:44;;;;;;;86.40;11.63;;;;;;;9.78;90.20;100227.09;10333733;28;20038;-79
2023/03/21 05:49:46;;;;;;;83.05;10.73;;;;;;;10.03;89.88;100250.00;10332936;28;20057;-78
2023/03/21 05:54:46;;;;;;;79.22;10.32;;;;;;;10.13;89.36;100238.38;10333805;28;20513;-79
2023/03/21 05:59:47;;;;;;;88.00;11.43;;;;;;;10.10;89.52;100220.97;10333839;28;20053;-80
2023/03/21 06:04:48;;;;;;;88.47;10.77;;;;;;;10.51;89.29;100288.13;10332977;28;20120;-80
2023/03/21 06:09:48;;;;;;;93.82;12.70;;;;;;;10.17;89.05;100227.28;10333571;28;20042;-80
2023/03/21 06:14:49;;;;;;;72.70;9.63;;;;;;;10.83;89.14;100322.75;10333530;28;20065;-79
2023/03/21 06:19:50;;;;;;;83.55;11.07;;;;;;;10.42;88.45;100208.66;10332471;28;20045;-80
2023/03/21 06:24:51;;;;;;;95.70;11.65;;;;;;;10.84;87.95;100258.00;10332312;28;20039;-80
2023/03/21 06:29:52;;;;;;;84.65;11.32;;;;;;;11.29;86.85;100285.72;10332801;28;20034;-79
2023/03/21 06:34:53;;;;;;;81.20;11.02;;;;;;;11.42;85.88;100251.38;10333017;28;20042;-79
2023/03/21 06:39:53;;;;;;;86.97;11.45;;;;;;;12.03;84.88;100324.19;10331828;28;20486;-80
2023/03/21 06:44:54;;;;;;;96.03;11.38;;;;;;;11.83;84.29;100257.25;10332288;28;20034;-80
2023/03/21 06:49:55;;;;;;;73.43;10.85;;;;;;;12.36;83.46;100315.13;10332158;28;20046;-81
2023/03/21 06:54:56;;;;;;;95.93;11.50;;;;;;;12.54;83.18;100286.31;10332165;28;20050;-80
2023/03/21 06:59:56;;;;;;;100.00;12.50;;;;;;;12.86;81.18;100293.09;10332036;28;20042;-79
2023/03/21 07:04:57;;;;;;;112.20;13.23;;;;;;;12.99;81.18;100327.16;10331799;28;20084;-80
2023/03/21 07:09:58;;;;;;;101.82;12.93;;;;;;;12.69;80.92;100265.00;10331707;28;20042;-79
2023/03/21 07:14:59;;;;;;;101.95;12.95;;;;;;;12.95;80.13;100326.69;10331464;28;20065;-79
2023/03/21 07:20:00;;;;;;;97.32;12.35;;;;;;;12.56;79.29;100327.75;10331260;28;20047;-80
2023/03/21 07:25:01;;;;;;;102.15;13.65;;;;;;;12.16;80.09;100264.19;10331453;28;20045;-79
2023/03/21 07:30:04;;;;;;;110.13;12.68;;;;;;;12.30;78.54;100276.72;10330844;28;20125;-79
2023/03/21 07:35:07;;;;;;;85.88;10.52;;;;;;;12.29;78.29;100285.69;10330531;28;20038;-80
2023/03/21 07:40:09;;;;;;;115.43;14.52;;;;;;;12.66;77.60;100316.00;10331429;28;20464;-79
2023/03/21 07:45:14;;;;;;;93.78;12.18;;;;;;;12.51;76.84;100249.38;10331832;28;20074;-79
2023/03/21 07:50:15;;;;;;;105.32;12.15;;;;;;;13.23;75.73;100280.69;10330443;28;20042;-78
2023/03/21 07:55:16;;;;;;;107.35;13.27;;;;;;;13.74;74.32;100282.50;10330387;28;20385;-79
2023/03/21 08:00:27;;;;;;;93.50;12.38;;;;;;;13.26;73.15;100229.66;10331459;28;20529;-79
2023/03/21 08:05:37;;;;;;;98.22;11.48;;;;;;;14.02;72.09;100266.53;10330700;28;20038;-80
2023/03/21 08:10:38;;;;;;;95.50;12.18;;;;;;;14.38;72.12;100274.41;10331101;28;20046;-80
2023/03/21 08:15:40;;;;;;;82.10;9.95;;;;;;;13.78;70.00;100171.63;10337663;28;20054;-80
2023/03/21 08:20:41;;;;;;;95.55;10.20;;;;;;;14.43;69.26;100255.13;10337107;28;20072;-80
2023/03/21 08:25:42;;;;;;;81.90;10.23;;;;;;;14.64;69.50;100275.66;10337371;28;20038;-80
2023/03/21 08:30:43;;;;;;;76.70;9.98;;;;;;;14.70;69.75;100272.19;10337608;28;20118;-80
2023/03/21 08:35:44;;;;;;;78.28;9.93;;;;;;;14.78;68.82;100277.41;10337543;28;20128;-79
2023/03/21 08:40:45;;;;;;;62.70;8.05;;;;;;;14.44;68.34;100214.84;10336969;28;20034;-80
2023/03/21 08:45:46;;;;;;;63.88;7.05;;;;;;;14.81;67.34;100235.03;10336990;28;20129;-79
2023/03/21 08:50:47;;;;;;;48.97;6.40;;;;;;;14.77;65.23;100228.41;10337101;28;20056;-79
2023/03/21 08:55:48;;;;;;;65.22;8.27;;;;;;;15.15;64.80;100237.84;10336793;28;20049;-79
2023/03/21 09:00:49;;;;;;;64.05;9.77;;;;;;;15.27;65.72;100246.94;10336116;28;20068;-79
2023/03/21 09:05:52;;;;;;;75.25;10.30;;;;;;;15.26;65.95;100239.94;10336558;28;20150;-80
2023/03/21 09:10:54;;;;;;;66.88;9.75;;;;;;;15.18;65.59;100187.44;10335901;28;20046;-79
2023/03/21 09:15:56;;;;;;;73.13;8.93;;;;;;;15.58;65.41;100243.72;10336221;28;20054;-79
2023/03/21 09:20:59;;;;;;;61.88;8.45;;;;;;;15.49;64.86;100224.34;10335047;28;20050;-79
2023/03/21 09:26:00;;;;;;;59.85;7.80;;;;;;;15.76;64.45;100240.47;10334683;28;20140;-80
2023/03/21 09:31:04;;;;;;;73.40;10.32;;;;;;;15.74;63.70;100218.47;10334411;28;20046;-80
2023/03/21 09:36:13;;;;;;;64.97;8.77;;;;;;;15.49;64.07;100159.28;10334274;28;20048;-78
2023/03/21 09:42:03;;;;;;;68.40;8.32;;;;;;;16.35;62.14;100228.13;10333127;28;20043;-80
2023/03/21 09:47:27;;;;;;;68.03;8.52;;;;;;;16.62;62.26;100229.69;10331189;28;20054;-81
2023/03/21 09:52:36;;;;;;;57.85;9.43;;;;;;;16.19;61.45;100211.44;10333016;28;20518;-78
2023/03/21 09:57:42;;;;;;;58.80;8.05;;;;;;;16.26;63.15;100218.66;10313783;28;20046;-81
2023/03/21 10:02:46;;;;;;;52.63;8.43;;;;;;;16.73;62.87;100206.78;10300818;28;20050;-83
2023/03/21 10:07:55;;;;;;;61.08;7.90;;;;;;;17.10;61.09;100199.00;10301670;28;20050;-82
2023/03/21 10:12:56;;;;;;;66.38;8.73;;;;;;;17.13;61.78;100205.81;10319159;28;20092;-82
2023/03/21 10:18:23;;;;;;;71.00;9.07;;;;;;;17.29;60.57;100214.19;10308300;28;20145;-81
2023/03/21 10:23:27;;;;;;;64.07;8.75;;;;;;;17.07;61.04;100194.91;10309690;28;20486;-80
2023/03/21 10:28:34;;;;;;;53.92;7.65;;;;;;;17.09;61.93;100163.31;10323754;28;20075;-82
2023/03/21 10:33:38;;;;;;;68.88;8.60;;;;;;;17.03;61.44;100203.59;10307265;28;20098;-81
2023/03/21 10:38:46;;;;;;;58.33;7.60;;;;;;;16.79;62.41;100197.91;10317897;28;20485;-80
2023/03/21 10:44:04;;;;;;;50.17;8.60;;;;;;;16.79;61.86;100197.09;10331913;28;20038;-81
2023/03/21 10:49:06;;;;;;;33.28;5.53;;;;;;;16.55;63.90;100199.41;10320859;28;20549;-80
2023/03/21 10:54:13;;;;;;;36.15;5.90;;;;;;;16.34;63.75;100195.13;10306864;28;20061;-81
2023/03/21 10:59:19;;;;;;;29.52;4.95;;;;;;;16.06;65.00;100191.84;10316967;28;20077;-81
2023/03/21 11:04:28;;;;;;;43.63;13.38;;;;;;;15.94;66.12;100192.50;10322241;28;20046;-80
2023/03/21 11:09:43;;;;;;;19.80;5.28;;;;;;;15.27;65.72;100052.41;10332446;28;20492;-84
2023/03/21 11:14:47;;;;;;;20.77;3.80;;;;;;;15.89;65.41;100165.50;10332317;28;20132;-83
2023/03/21 11:20:00;;;;;;;14.70;6.47;;;;;;;16.02;66.14;100204.03;10331108;28;20034;-83
2023/03/21 11:25:05;;;;;;;10.90;2.20;;;;;;;15.88;66.35;100189.81;10330727;28;20050;-83
2023/03/21 11:30:22;;;;;;;13.95;2.58;;;;;;;15.18;67.92;100122.38;10330776;28;20046;-84
2023/03/21 11:35:27;;;;;;;10.98;3.50;;;;;;;15.32;68.77;100198.19;10331150;28;20081;-82
2023/03/21 11:40:33;;;;;;;8.18;2.50;;;;;;;14.94;69.88;100158.56;10331098;28;20049;-83
2023/03/21 11:45:35;;;;;;;7.88;2.30;;;;;;;15.12;69.62;100206.16;10320289;28;20035;-82
2023/03/21 11:50:46;;;;;;;6.45;2.10;;;;;;;15.13;69.93;100197.09;10338289;28;20050;-83
2023/03/21 11:56:08;;;;;;;10.77;2.55;;;;;;;15.07;70.33;100188.00;10338449;28;20157;-83
2023/03/21 12:01:14;;;;;;;7.45;4.53;;;;;;;14.60;70.06;100114.84;10339017;28;20070;-81
2023/03/21 12:06:29;;;;;;;9.70;4.53;;;;;;;14.91;69.80;100173.16;10338260;28;20042;-83
2023/03/21 12:11:40;;;;;;;8.07;4.63;;;;;;;14.72;68.62;100136.47;10339161;28;20049;-83
2023/03/21 12:16:58;;;;;;;5.70;2.72;;;;;;;14.79;68.67;100114.06;10337778;28;20058;-83
2023/03/21 12:22:23;;;;;;;5.18;2.60;;;;;;;15.39;68.43;100199.00;10338352;28;20457;-81
2023/03/21 12:27:44;;;;;;;4.47;2.25;;;;;;;15.13;67.65;100175.69;10337933;28;20042;-82
2023/03/21 12:32:58;;;;;;;7.90;4.20;;;;;;;15.01;68.14;100162.88;10337797;28;20042;-81
2023/03/21 12:38:25;;;;;;;8.60;4.30;;;;;;;14.59;67.53;100105.97;10336088;28;20046;-83
2023/03/21 12:43:39;;;;;;;5.43;2.40;;;;;;;14.96;67.66;100169.88;10308353;28;20517;-82
2023/03/21 12:48:54;;;;;;;7.13;3.08;;;;;;;15.07;66.94;100172.78;10298434;28;20090;-81
2023/03/21 12:53:59;;;;;;;4.75;2.35;;;;;;;15.19;67.15;100182.91;10318261;28;20058;-82
2023/03/21 12:59:05;;;;;;;;;;;;;;;15.48;66.88;100184.41;10324007;28;20039;-84
2023/03/21 13:04:30;;;;;;;5.53;3.30;;;;;;;15.09;68.28;100167.22;10305861;28;19918;-83
2023/03/21 13:09:39;;;;;;;4.32;2.60;;;;;;;15.28;68.38;100187.84;10295054;28;20046;-82
2023/03/21 13:15:02;;;;;;;5.75;2.00;;;;;;;15.32;67.57;100169.56;10304452;28;20066;-85
2023/03/21 13:20:18;;;;;;;5.30;2.50;;;;;;;15.10;67.24;100127.94;10323479;28;20049;-87
2023/03/21 13:25:24;;;;;;;16.58;9.60;;;;;;;15.27;67.65;100198.78;10313492;28;20052;-85
2023/03/21 13:30:28;;;;;;;8.98;5.20;;;;;;;14.81;67.44;100140.63;10331430;28;20046;-85
2023/03/21 13:35:37;;;;;;;7.38;3.75;;;;;;;15.27;67.50;100214.84;10326562;28;20050;-85
2023/03/21 13:40:57;;;;;;;4.85;2.90;;;;;;;15.42;66.81;100207.44;10324924;28;20058;-83
2023/03/21 13:46:07;;;;;;;4.75;2.88;;;;;;;15.64;66.45;100193.88;10329539;28;20061;-84
2023/03/21 13:51:08;;;;;;;4.65;2.90;;;;;;;14.94;66.97;100139.81;10321428;28;20049;-85
2023/03/21 13:56:21;;;;;;;3.75;2.80;;;;;;;15.04;68.31;100201.78;10329136;28;20042;-83
2023/03/21 14:01:27;;;;;;;5.22;3.28;;;;;;;14.89;68.34;100212.63;10325173;28;20045;-85
2023/03/21 14:06:44;;;;;;;6.32;3.95;;;;;;;14.61;68.75;100216.22;10330971;28;20038;-84
2023/03/21 14:11:47;;;;;;;7.35;3.50;;;;;;;14.39;69.33;100199.41;10325783;28;20097;-83
2023/03/21 14:16:51;;;;;;;4.65;3.53;;;;;;;13.81;69.41;100149.88;10326018;28;20067;-77
2023/03/21 14:21:52;;;;;;;6.20;3.47;;;;;;;14.03;69.95;100228.97;10325993;28;20038;-76
2023/03/21 14:26:54;;;;;;;5.10;3.47;;;;;;;13.20;70.36;100129.84;10324279;28;20060;-77
2023/03/21 14:31:56;;;;;;;8.00;3.80;;;;;;;13.32;70.65;100198.72;10325843;28;20042;-77
2023/03/21 14:36:57;;;;;;;4.38;3.42;;;;;;;13.32;71.27;100233.41;10321516;28;20057;-77
2023/03/21 14:42:07;;;;;;;7.13;4.18;;;;;;;13.32;72.37;100265.41;10319613;28;20038;-76
2023/03/21 14:47:17;;;;;;;6.78;4.20;;;;;;;13.01;73.18;100245.09;10323083;28;21463;-77
2023/03/21 14:52:26;;;;;;;8.48;5.07;;;;;;;13.08;73.23;100271.88;10317783;28;20034;-78
2023/03/21 14:57:30;;;;;;;6.00;4.10;;;;;;;13.08;73.30;100282.53;10320382;28;20134;-77
2023/03/21 15:02:34;;;;;;;6.13;4.50;;;;;;;12.85;73.36;100262.13;10324113;28;20414;-77
2023/03/21 15:07:36;;;;;;;6.40;4.50;;;;;;;12.94;73.57;100286.88;10319315;28;20042;-78
2023/03/21 15:12:37;;;;;;;8.05;5.15;;;;;;;12.84;74.11;100292.47;10329500;28;20038;-76
2023/03/21 15:17:38;;;;;;;7.78;5.47;;;;;;;12.28;74.46;100225.47;10332506;28;20507;-77
2023/03/21 15:22:44;;;;;;;7.32;4.97;;;;;;;12.08;75.07;100218.00;10336679;28;20047;-77
2023/03/21 15:27:47;;;;;;;8.45;5.07;;;;;;;12.33;75.57;100298.50;10340327;28;20042;-77
2023/03/21 15:32:49;;;;;;;11.57;5.93;;;;;;;11.70;75.73;100225.13;10339435;28;20046;-77
2023/03/21 15:37:55;;;;;;;11.48;6.80;;;;;;;11.88;77.07;100291.38;10339557;28;20553;-78
2023/03/21 15:43:13;;;;;;;11.68;6.93;;;;;;;11.49;78.30;100267.50;10340247;28;20039;-78
2023/03/21 15:48:15;;;;;;;9.75;7.88;;;;;;;11.38;77.63;100288.16;10338801;28;20048;-78
2023/03/21 15:53:18;;;;;;;6.97;5.40;;;;;;;11.27;79.07;100312.47;10339280;28;20038;-78
2023/03/21 15:58:22;;;;;;;6.83;5.20;;;;;;;11.09;79.12;100307.41;10338943;28;20116;-78
2023/03/21 16:03:26;;;;;;;7.05;5.35;;;;;;;10.94;79.67;100317.91;10323504;28;20076;-78
2023/03/21 16:08:27;;;;;;;10.10;5.57;;;;;;;10.82;79.74;100316.63;10314632;28;20054;-75
2023/03/21 16:13:28;;;;;;;8.55;5.90;;;;;;;10.58;80.31;100298.09;10314596;28;20062;-74
2023/03/21 16:18:30;;;;;;;9.50;5.97;;;;;;;10.58;80.84;100328.13;10317073;28;20125;-75
2023/03/21 16:23:31;;;;;;;9.98;6.63;;;;;;;10.37;81.01;100309.25;10304560;28;20097;-75
2023/03/21 16:28:32;;;;;;;9.68;6.22;;;;;;;10.14;81.04;100290.47;10321083;28;20042;-76
2023/03/21 16:33:32;;;;;;;13.95;5.65;;;;;;;10.34;81.51;100346.75;10314106;28;20058;-76
2023/03/21 16:38:33;;;;;;;8.63;5.32;;;;;;;10.24;82.02;100342.41;10308033;28;20561;-76
2023/03/21 16:43:35;;;;;;;7.50;5.18;;;;;;;10.15;82.17;100347.88;10312791;28;20073;-76
2023/03/21 16:48:36;;;;;;;11.18;5.63;;;;;;;10.09;82.34;100341.41;10321797;28;20100;-76
2023/03/21 16:53:37;;;;;;;10.07;6.68;;;;;;;9.90;82.37;100328.44;10314123;28;20090;-76
2023/03/21 16:58:38;;;;;;;11.02;6.72;;;;;;;9.42;82.56;100261.88;10314090;28;20077;-77
2023/03/21 17:03:38;;;;;;;16.83;8.82;;;;;;;9.37;82.61;100270.31;10311728;28;20053;-77
2023/03/21 17:08:39;;;;;;;13.40;8.15;;;;;;;9.87;82.97;100358.81;10313775;28;20431;-77
2023/03/21 17:13:40;;;;;;;18.10;11.25;;;;;;;9.80;83.45;100355.13;10296961;28;20435;-77
2023/03/21 17:18:42;;;;;;;15.68;10.07;;;;;;;9.62;83.71;100339.31;10314713;28;20038;-76
2023/03/21 17:23:43;;;;;;;17.98;7.75;;;;;;;9.74;83.90;100375.16;10309669;28;20419;-77
2023/03/21 17:28:44;;;;;;;9.75;7.10;;;;;;;9.53;84.06;100335.81;10314591;28;20044;-77
2023/03/21 17:33:45;;;;;;;11.02;7.18;;;;;;;9.66;84.33;100355.75;10306992;28;20053;-76
2023/03/21 17:38:46;;;;;;;10.15;6.60;;;;;;;9.80;84.28;100384.31;10332671;28;20042;-77
2023/03/21 17:43:47;;;;;;;10.68;5.30;;;;;;;9.58;84.26;100375.97;10329297;28;20038;-77
2023/03/21 17:48:49;;;;;;;8.18;6.18;;;;;;;9.43;84.78;100372.25;10298701;28;20093;-77
2023/03/21 17:53:49;;;;;;;9.90;7.13;;;;;;;9.44;84.76;100383.69;10294099;28;20035;-78
2023/03/21 17:58:51;;;;;;;13.75;8.45;;;;;;;9.31;85.04;100386.78;10294289;28;20057;-76
2023/03/21 18:03:55;;;;;;;15.40;8.52;;;;;;;8.05;85.18;100216.88;10293120;28;20097;-77
2023/03/21 18:08:56;;;;;;;18.73;9.80;;;;;;;9.03;85.77;100392.25;10294241;28;20085;-76
2023/03/21 18:13:58;;;;;;;22.10;12.13;;;;;;;8.62;86.01;100339.03;10292903;28;20051;-77
2023/03/21 18:18:58;;;;;;;17.25;9.93;;;;;;;8.69;86.38;100368.38;10293266;28;20043;-76
2023/03/21 18:23:59;;;;;;;15.70;9.68;;;;;;;8.81;86.81;100390.16;10291928;28;20371;-77
2023/03/21 18:29:00;;;;;;;37.97;16.23;;;;;;;8.52;87.46;100371.88;10292390;28;20050;-76
2023/03/21 18:34:02;;;;;;;31.92;14.27;;;;;;;8.47;87.55;100390.91;10293121;28;20043;-76
2023/03/21 18:39:03;;;;;;;21.33;8.80;;;;;;;8.48;88.37;100387.25;10293420;28;20062;-76
2023/03/21 18:44:04;;;;;;;18.05;9.90;;;;;;;8.51;89.06;100380.81;10292036;28;20057;-76
2023/03/21 18:49:06;;;;;;;32.55;12.70;;;;;;;8.32;89.10;100319.09;10298645;28;20049;-77
2023/03/21 18:54:07;;;;;;;16.48;9.90;;;;;;;8.69;89.15;100377.16;10306853;28;20054;-77
2023/03/21 18:59:08;;;;;;;14.07;7.13;;;;;;;8.62;89.81;100378.75;10307051;28;20069;-77
2023/03/21 19:04:08;;;;;;;13.43;6.32;;;;;;;8.17;90.05;100318.81;10304313;28;20046;-77
2023/03/21 19:09:09;;;;;;;10.43;6.38;;;;;;;8.26;90.23;100354.13;10320982;28;20035;-77
2023/03/21 19:14:15;;;;;;;11.95;7.40;;;;;;;8.14;90.67;100348.25;10306177;28;20498;-77
2023/03/21 19:19:21;;;;;;;22.50;13.38;;;;;;;8.23;90.33;100368.50;10290889;28;20506;-77
2023/03/21 19:24:22;;;;;;;10.40;7.05;;;;;;;8.12;90.22;100383.75;10290914;28;20553;-78
2023/03/21 19:29:23;;;;;;;10.18;6.57;;;;;;;7.71;90.46;100349.78;10291712;28;20097;-77
2023/03/21 19:34:25;;;;;;;14.40;9.18;;;;;;;7.85;90.53;100372.25;10291635;28;20427;-78
2023/03/21 19:39:26;;;;;;;70.75;32.40;;;;;;;6.78;90.50;100206.41;10291784;28;20482;-77
2023/03/21 19:44:26;;;;;;;52.53;24.40;;;;;;;7.16;90.10;100299.63;10309347;28;20050;-78
2023/03/21 19:49:27;;;;;;;27.98;12.63;;;;;;;7.45;90.67;100381.41;10308163;28;20395;-78
2023/03/21 19:54:29;;;;;;;36.53;15.73;;;;;;;6.76;90.92;100268.25;10290816;28;20058;-81
2023/03/21 19:59:30;;;;;;;30.25;14.48;;;;;;;7.06;90.89;100336.66;10320263;28;20045;-79
2023/03/21 20:04:31;;;;;;;34.03;16.20;;;;;;;6.99;90.70;100377.00;10320896;28;20047;-79
2023/03/21 20:09:32;;;;;;;16.25;10.30;;;;;;;6.50;91.35;100339.34;10336094;28;20409;-79
2023/03/21 20:14:33;;;;;;;17.58;9.55;;;;;;;6.38;92.17;100378.22;10338203;28;20057;-78
2023/03/21 20:19:34;;;;;;;11.80;8.18;;;;;;;6.03;92.64;100345.31;10337898;28;20050;-79
2023/03/21 20:24:35;;;;;;;15.48;7.95;;;;;;;5.30;92.81;100220.97;10337315;28;20441;-79
2023/03/21 20:29:39;;;;;;;12.32;8.27;;;;;;;5.16;93.63;100192.41;10336997;28;20553;-79
2023/03/21 20:34:41;;;;;;;84.80;40.22;;;;;;;5.68;93.18;100301.00;10338688;28;20097;-79
2023/03/21 20:39:42;;;;;;;69.40;34.60;;;;;;;5.42;92.57;100240.13;10337231;28;20053;-79
2023/03/21 20:44:42;;;;;;;88.90;42.72;;;;;;;4.96;93.40;100165.19;10336468;28;20046;-79
2023/03/21 20:49:44;;;;;;;115.40;60.33;;;;;;;5.55;93.01;100247.75;10336880;28;20071;-79
2023/03/21 20:54:46;;;;;;;187.15;102.20;;;;;;;5.44;94.30;100230.25;10336834;28;20517;-79
2023/03/21 20:59:47;;;;;;;163.32;91.00;;;;;;;5.70;93.09;100278.81;10335412;28;20045;-79
2023/03/21 21:04:48;;;;;;;100.85;53.08;;;;;;;5.37;92.75;100276.56;10334596;28;20057;-79
2023/03/21 21:09:49;;;;;;;29.17;17.80;;;;;;;5.36;92.88;100317.88;10336682;28;20053;-79
2023/03/21 21:14:50;;;;;;;24.85;13.20;;;;;;;5.28;94.11;100327.44;10336381;28;20058;-80
2023/03/21 21:19:51;;;;;;;17.38;10.88;;;;;;;5.59;94.60;100380.88;10337204;28;20097;-79
2023/03/21 21:24:52;;;;;;;15.45;9.52;;;;;;;5.53;95.54;100376.16;10335208;28;20082;-80
2023/03/21 21:29:52;;;;;;;13.95;9.05;;;;;;;5.69;95.73;100382.59;10336102;28;20062;-79
2023/03/21 21:34:53;;;;;;;14.50;8.57;;;;;;;5.60;95.84;100337.78;10335491;28;20049;-80
2023/03/21 21:39:54;;;;;;;18.08;8.70;;;;;;;5.33;95.60;100267.28;10335655;28;20042;-79
2023/03/21 21:44:54;;;;;;;12.25;7.20;;;;;;;5.92;95.55;100350.69;10335049;28;20042;-80
2023/03/21 21:49:55;;;;;;;15.27;8.30;;;;;;;5.81;94.74;100330.59;10334870;28;20158;-80
2023/03/21 21:54:56;;;;;;;11.90;7.57;;;;;;;5.70;95.06;100341.25;10334347;28;20073;-80
2023/03/21 21:59:57;;;;;;;11.73;7.10;;;;;;;5.12;94.68;100288.44;10334259;28;20042;-80
2023/03/21 22:04:57;;;;;;;12.57;8.00;;;;;;;5.45;94.48;100396.13;10325668;28;20042;-80
2023/03/21 22:09:58;;;;;;;11.13;7.20;;;;;;;4.85;94.96;100308.31;10293890;28;20054;-81
2023/03/21 22:14:59;;;;;;;14.70;8.90;;;;;;;4.82;96.23;100274.34;10294111;28;20065;-80
2023/03/21 22:20:00;;;;;;;13.80;8.75;;;;;;;4.92;96.50;100277.84;10293873;28;20134;-81
2023/03/21 22:25:01;;;;;;;10.85;7.07;;;;;;;4.98;95.85;100303.63;10293223;28;20042;-80
2023/03/21 22:30:08;;;;;;;13.63;9.68;;;;;;;4.90;95.91;100289.47;10292672;28;20178;-80
2023/03/21 22:35:09;;;;;;;18.70;12.07;;;;;;;5.00;96.30;100327.19;10293403;28;20055;-81
2023/03/21 22:40:14;;;;;;;16.98;10.45;;;;;;;5.35;96.10;100389.97;10292964;28;20034;-80
2023/03/21 22:45:15;;;;;;;21.88;11.88;;;;;;;4.35;96.52;100201.16;10292739;28;20046;-81
2023/03/21 22:50:16;;;;;;;20.40;11.88;;;;;;;4.89;96.65;100303.59;10291958;28;20093;-81
2023/03/21 22:55:17;;;;;;;17.10;10.55;;;;;;;5.08;96.16;100366.03;10307365;28;20454;-81
2023/03/21 23:00:18;;;;;;;12.95;8.52;;;;;;;4.93;96.64;100347.94;10292341;28;20070;-81
2023/03/21 23:05:19;;;;;;;11.88;8.65;;;;;;;5.06;96.39;100353.00;10291971;28;20046;-81